Time;durP1;ratioP1;P1;durP2;ratioP2;P2;SDS_P1;SDS_P2;PMS_P1;PMS_P2;Temp;Humidity;BMP_temperature;BMP_pressure;BME280_temperature;BME280_humidity;BME280_pressure;Samples;Min_cycle;Max_cycle;Signal;HPM_P1;HPM_P2
2023/06/25 00:00:54;;;;;;;12.65;10.50;;;20.80;99.90;;;;;;4977407;28;20042;-65
2023/06/25 00:03:20;;;;;;;14.27;9.98;;;20.70;99.90;;;;;;4992074;28;20074;-66
2023/06/25 00:05:45;;;;;;;13.25;9.82;;;20.70;99.90;;;;;;4957402;28;20492;-66
2023/06/25 00:08:11;;;;;;;12.77;9.77;;;20.60;99.90;;;;;;4983822;28;20046;-67
2023/06/25 00:10:37;;;;;;;12.82;9.43;;;20.60;99.90;;;;;;4970344;28;20043;-66
2023/06/25 00:13:03;;;;;;;12.15;9.10;;;20.60;99.90;;;;;;4991879;28;20070;-65
2023/06/25 00:15:28;;;;;;;15.30;9.85;;;20.60;99.90;;;;;;4992487;28;20042;-66
2023/06/25 00:17:55;;;;;;;10.00;8.68;;;20.60;99.90;;;;;;4992699;28;20046;-65
2023/06/25 00:20:22;;;;;;;14.82;9.52;;;20.50;99.90;;;;;;4950901;28;20089;-65
2023/06/25 00:22:47;;;;;;;12.25;9.50;;;20.50;99.90;;;;;;4971326;28;20046;-65
2023/06/25 00:25:15;;;;;;;13.38;9.60;;;20.50;99.90;;;;;;4941922;28;20038;-65
2023/06/25 00:27:41;;;;;;;11.43;9.65;;;20.50;99.90;;;;;;4992607;28;20061;-65
2023/06/25 00:30:07;;;;;;;14.43;9.60;;;20.40;99.90;;;;;;4985954;28;20053;-65
2023/06/25 00:32:34;;;;;;;12.65;9.38;;;20.40;99.90;;;;;;4958136;28;20150;-65
2023/06/25 00:35:01;;;;;;;13.35;8.98;;;20.30;99.90;;;;;;4991534;28;20118;-65
2023/06/25 00:37:27;;;;;;;12.27;8.98;;;20.30;99.90;;;;;;4992363;28;20046;-66
2023/06/25 00:39:53;;;;;;;13.93;9.43;;;20.30;99.90;;;;;;4991378;28;20050;-65
2023/06/25 00:42:19;;;;;;;12.02;9.90;;;20.30;99.90;;;;;;4990486;28;20045;-65
2023/06/25 00:44:45;;;;;;;12.48;9.60;;;20.30;99.90;;;;;;4974561;28;20042;-65
2023/06/25 00:47:13;;;;;;;15.85;9.98;;;20.20;99.90;;;;;;4991337;28;20062;-66
2023/06/25 00:49:40;;;;;;;13.60;9.35;;;20.20;99.90;;;;;;4974187;28;20130;-66
2023/06/25 00:52:08;;;;;;;13.30;9.85;;;20.20;99.90;;;;;;4991136;28;20046;-65
2023/06/25 00:54:44;;;;;;;14.32;10.25;;;20.10;99.90;;;;;;4969416;28;20042;-65
2023/06/25 00:57:11;;;;;;;16.40;9.50;;;20.20;99.90;;;;;;4989879;28;20046;-66
2023/06/25 00:59:42;;;;;;;13.32;10.27;;;20.20;99.90;;;;;;4972104;28;20487;-65
2023/06/25 01:02:29;;;;;;;13.07;9.45;;;20.10;99.90;;;;;;4958268;28;20055;-65
2023/06/25 01:05:12;;;;;;;11.48;9.30;;;20.10;99.90;;;;;;4963956;28;20082;-65
2023/06/25 01:07:43;;;;;;;12.25;9.43;;;20.10;99.90;;;;;;4991980;28;20043;-66
2023/06/25 01:10:10;;;;;;;14.55;9.68;;;20.10;99.90;;;;;;4973409;28;20042;-66
2023/06/25 01:12:37;;;;;;;12.52;9.65;;;20.10;99.90;;;;;;4971237;28;20043;-65
2023/06/25 01:15:03;;;;;;;12.32;9.50;;;20.10;99.90;;;;;;4972878;28;20387;-66
2023/06/25 01:17:29;;;;;;;12.48;9.60;;;20.10;99.90;;;;;;4991620;28;20065;-66
2023/06/25 01:19:55;;;;;;;13.32;9.02;;;20.00;99.90;;;;;;4972183;28;20126;-66
2023/06/25 01:22:31;;;;;;;14.00;9.85;;;19.90;99.90;;;;;;4988464;28;20142;-66
2023/06/25 01:25:00;;;;;;;11.43;10.07;;;19.90;99.90;;;;;;4974049;28;20050;-66
2023/06/25 01:27:26;;;;;;;12.45;10.07;;;19.90;99.90;;;;;;4991579;28;20048;-66
2023/06/25 01:29:52;;;;;;;13.80;10.18;;;19.80;99.90;;;;;;4978427;28;20042;-66
2023/06/25 01:32:18;;;;;;;13.45;10.13;;;19.80;99.90;;;;;;4977299;28;20077;-66
2023/06/25 01:34:44;;;;;;;12.10;9.25;;;19.80;99.90;;;;;;4990878;28;20046;-65
2023/06/25 01:37:11;;;;;;;11.38;9.57;;;19.80;99.90;;;;;;4973667;28;20081;-71
2023/06/25 01:39:37;;;;;;;13.95;9.70;;;19.80;99.90;;;;;;4953172;28;20065;-66
2023/06/25 01:42:04;;;;;;;13.20;10.55;;;19.80;99.90;;;;;;4994403;28;20411;-65
2023/06/25 01:44:31;;;;;;;14.60;10.52;;;19.80;99.90;;;;;;4992364;28;20046;-65
2023/06/25 01:46:58;;;;;;;13.43;10.18;;;19.70;99.90;;;;;;4974897;28;20073;-66
2023/06/25 01:49:25;;;;;;;12.75;10.38;;;19.60;99.90;;;;;;4977659;28;20093;-66
2023/06/25 01:51:51;;;;;;;13.95;9.95;;;19.60;99.90;;;;;;4975195;28;20103;-67
2023/06/25 01:54:17;;;;;;;13.35;10.32;;;19.60;99.90;;;;;;4994638;28;20476;-66
2023/06/25 01:56:43;;;;;;;13.88;10.43;;;19.70;99.90;;;;;;4972028;28;20125;-66
2023/06/25 01:59:09;;;;;;;13.70;10.40;;;19.50;99.90;;;;;;4983391;28;20046;-66
2023/06/25 02:01:35;;;;;;;15.43;11.68;;;19.50;99.90;;;;;;4950842;28;20445;-65
2023/06/25 02:04:01;;;;;;;18.23;11.60;;;19.40;99.90;;;;;;4993257;28;20132;-65
2023/06/25 02:06:27;;;;;;;13.77;11.13;;;19.40;99.90;;;;;;4991419;28;20065;-65
2023/06/25 02:08:53;;;;;;;13.52;11.13;;;19.30;99.90;;;;;;4959756;28;20049;-65
2023/06/25 02:11:19;;;;;;;14.93;11.63;;;19.30;99.90;;;;;;4993436;28;20046;-66
2023/06/25 02:13:44;;;;;;;16.80;11.40;;;19.20;99.90;;;;;;4977737;28;20506;-66
2023/06/25 02:16:10;;;;;;;14.02;10.82;;;19.10;99.90;;;;;;4976141;28;20181;-66
2023/06/25 02:18:36;;;;;;;13.77;10.90;;;19.10;99.90;;;;;;4982982;28;20046;-66
2023/06/25 02:21:03;;;;;;;14.63;11.57;;;19.20;99.90;;;;;;4974739;28;20061;-66
2023/06/25 02:23:28;;;;;;;15.05;11.10;;;19.10;99.90;;;;;;4994275;28;20046;-67
2023/06/25 02:25:54;;;;;;;13.90;10.82;;;19.20;99.90;;;;;;4976200;28;20092;-66
2023/06/25 02:28:20;;;;;;;16.48;11.25;;;19.20;99.90;;;;;;4973614;28;20487;-65
2023/06/25 02:30:45;;;;;;;15.10;11.63;;;19.20;99.90;;;;;;4961550;28;20053;-66
2023/06/25 02:33:11;;;;;;;12.80;11.30;;;19.10;99.90;;;;;;4992606;28;20085;-66
2023/06/25 02:35:37;;;;;;;16.45;11.05;;;19.10;99.90;;;;;;4976393;28;20034;-66
2023/06/25 02:38:03;;;;;;;17.88;10.90;;;19.10;99.90;;;;;;4947453;28;20097;-64
2023/06/25 02:40:29;;;;;;;14.77;11.45;;;19.10;99.90;;;;;;4959972;28;20171;-65
2023/06/25 02:42:55;;;;;;;15.50;11.70;;;19.10;99.90;;;;;;4991883;28;20050;-65
2023/06/25 02:45:21;;;;;;;16.02;11.13;;;19.10;99.90;;;;;;4993016;28;20045;-66
2023/06/25 02:47:48;;;;;;;14.13;11.05;;;19.10;99.90;;;;;;4977029;28;20058;-65
2023/06/25 02:50:14;;;;;;;14.63;11.27;;;19.10;99.90;;;;;;4976118;28;20503;-65
2023/06/25 02:52:40;;;;;;;15.82;11.80;;;19.00;99.90;;;;;;4992881;28;20046;-65
2023/06/25 02:55:06;;;;;;;15.80;12.18;;;19.00;99.90;;;;;;4985880;28;20049;-65
2023/06/25 02:57:32;;;;;;;14.40;10.98;;;19.00;99.90;;;;;;4993325;28;20514;-65
2023/06/25 02:59:59;;;;;;;12.77;11.23;;;19.00;99.90;;;;;;4992564;28;20084;-65
2023/06/25 03:02:25;;;;;;;14.38;11.45;;;19.00;99.90;;;;;;4992484;28;20038;-65
2023/06/25 03:04:50;;;;;;;14.57;11.10;;;19.00;99.90;;;;;;4993619;28;20122;-65
2023/06/25 03:07:16;;;;;;;15.07;11.52;;;19.00;99.90;;;;;;4939487;28;20109;-65
2023/06/25 03:09:42;;;;;;;15.05;11.73;;;19.00;99.90;;;;;;4981129;28;20122;-65
2023/06/25 03:12:09;;;;;;;13.80;11.85;;;18.90;99.90;;;;;;4966549;28;20419;-65
2023/06/25 03:14:36;;;;;;;16.25;11.77;;;18.90;99.90;;;;;;4957531;28;20039;-65
2023/06/25 03:17:03;;;;;;;18.67;12.02;;;18.90;99.90;;;;;;4975760;28;20050;-65
2023/06/25 03:19:29;;;;;;;14.45;11.82;;;18.80;99.90;;;;;;4993089;28;20082;-66
2023/06/25 03:21:55;;;;;;;15.65;12.25;;;18.80;99.90;;;;;;4991733;28;20050;-66
2023/06/25 03:24:21;;;;;;;17.38;12.80;;;18.80;99.90;;;;;;4959338;28;20400;-66
2023/06/25 03:26:46;;;;;;;15.05;12.18;;;18.80;99.90;;;;;;4975597;28;20042;-65
2023/06/25 03:29:12;;;;;;;16.98;11.77;;;18.80;99.90;;;;;;4992571;28;20044;-65
2023/06/25 03:31:38;;;;;;;16.48;12.25;;;18.80;99.90;;;;;;4992348;28;20038;-66
2023/06/25 03:34:04;;;;;;;16.10;11.98;;;18.80;99.90;;;;;;4959466;28;20484;-65
2023/06/25 03:36:29;;;;;;;15.68;11.93;;;18.70;99.90;;;;;;4975398;28;20050;-65
2023/06/25 03:38:56;;;;;;;17.00;12.77;;;18.70;99.90;;;;;;4975160;28;20042;-65
2023/06/25 03:41:23;;;;;;;16.45;12.40;;;18.70;99.90;;;;;;4992108;28;20116;-66
2023/06/25 03:43:48;;;;;;;15.50;12.90;;;18.60;99.90;;;;;;4975412;28;20101;-66
2023/06/25 03:46:14;;;;;;;18.15;12.90;;;18.60;99.90;;;;;;4973579;28;20050;-65
2023/06/25 03:48:43;;;;;;;16.75;12.88;;;18.60;99.90;;;;;;4991565;28;20050;-66
2023/06/25 03:51:09;;;;;;;22.45;13.80;;;18.60;99.90;;;;;;4975768;28;20053;-66
2023/06/25 03:53:35;;;;;;;17.90;13.25;;;18.60;99.90;;;;;;4970826;28;20050;-67
2023/06/25 03:56:01;;;;;;;18.38;14.48;;;18.60;99.90;;;;;;4992299;28;20042;-65
2023/06/25 03:58:26;;;;;;;16.92;13.38;;;18.60;99.90;;;;;;4957124;28;20046;-66
2023/06/25 04:00:52;;;;;;;16.50;13.18;;;18.60;99.90;;;;;;4975073;28;20077;-66
2023/06/25 04:03:18;;;;;;;22.45;14.25;;;18.60;99.90;;;;;;4958968;28;20046;-66
2023/06/25 04:05:45;;;;;;;18.27;12.88;;;18.60;99.90;;;;;;4973701;28;20073;-66
2023/06/25 04:08:11;;;;;;;19.10;13.48;;;18.60;99.90;;;;;;4975434;28;20054;-66
2023/06/25 04:10:38;;;;;;;17.88;13.75;;;18.60;99.90;;;;;;4965324;28;20049;-66
2023/06/25 04:13:03;;;;;;;18.27;13.10;;;18.60;99.90;;;;;;4988199;28;20499;-66
2023/06/25 04:15:29;;;;;;;18.58;13.55;;;18.60;99.90;;;;;;4973597;28;20042;-66
2023/06/25 04:17:55;;;;;;;16.48;13.63;;;18.60;99.90;;;;;;4970177;28;20607;-66
2023/06/25 04:20:23;;;;;;;16.92;13.15;;;18.70;99.90;;;;;;4991597;28;20049;-66
2023/06/25 04:22:48;;;;;;;17.73;13.23;;;18.70;99.90;;;;;;4991521;28;20407;-66
2023/06/25 04:25:14;;;;;;;18.00;13.20;;;18.80;99.90;;;;;;4986639;28;20123;-66
2023/06/25 04:27:40;;;;;;;15.18;12.52;;;18.80;99.90;;;;;;4957634;28;20173;-66
2023/06/25 04:30:06;;;;;;;15.02;11.98;;;18.80;99.90;;;;;;4958514;28;20097;-64
2023/06/25 04:32:32;;;;;;;16.67;12.43;;;18.80;99.90;;;;;;4988151;28;20486;-66
2023/06/25 04:34:58;;;;;;;15.10;11.77;;;18.90;99.90;;;;;;4982892;28;20057;-66
2023/06/25 04:37:24;;;;;;;17.40;12.63;;;19.00;99.90;;;;;;4969955;28;20046;-66
2023/06/25 04:39:50;;;;;;;15.63;12.00;;;19.00;99.90;;;;;;4974389;28;20042;-66
2023/06/25 04:42:15;;;;;;;17.30;12.20;;;19.10;99.90;;;;;;4979201;28;20105;-66
2023/06/25 04:44:41;;;;;;;15.43;12.27;;;19.20;99.90;;;;;;4990005;28;20125;-66
2023/06/25 04:47:07;;;;;;;16.02;12.32;;;19.20;99.90;;;;;;4991215;28;20049;-66
2023/06/25 04:49:32;;;;;;;16.05;11.68;;;19.30;99.90;;;;;;4958347;28;20042;-66
2023/06/25 04:51:58;;;;;;;16.17;11.32;;;19.50;99.90;;;;;;4967582;28;20053;-66
2023/06/25 04:54:24;;;;;;;16.77;12.00;;;19.60;99.90;;;;;;4971895;28;20046;-67
2023/06/25 04:56:49;;;;;;;14.88;10.98;;;19.90;99.90;;;;;;4974697;28;20133;-66
2023/06/25 04:59:15;;;;;;;12.73;10.35;;;20.40;99.90;;;;;;4962011;28;20042;-66
2023/06/25 05:01:41;;;;;;;13.15;9.50;;;21.00;99.90;;;;;;4977687;28;20046;-66
2023/06/25 05:04:07;;;;;;;12.45;10.55;;;21.70;99.90;;;;;;4967155;28;20047;-68
2023/06/25 05:06:32;;;;;;;11.35;9.35;;;22.40;99.90;;;;;;4962297;28;20085;-66
2023/06/25 05:08:58;;;;;;;14.10;9.25;;;23.10;99.90;;;;;;4977294;28;20518;-65
2023/06/25 05:11:24;;;;;;;15.07;10.00;;;23.70;99.90;;;;;;4995875;28;20077;-66
2023/06/25 05:13:49;;;;;;;11.55;8.95;;;24.20;99.90;;;;;;4968440;28;20038;-67
2023/06/25 05:16:15;;;;;;;12.25;9.48;;;24.70;99.90;;;;;;4970366;28;20489;-66
2023/06/25 05:18:42;;;;;;;13.40;8.93;;;24.90;99.90;;;;;;4977467;28;20484;-71
2023/06/25 05:21:07;;;;;;;10.68;8.00;;;25.00;99.90;;;;;;4983237;28;20189;-67
2023/06/25 05:23:56;;;;;;;8.90;7.60;;;25.50;99.90;;;;;;4972854;28;20517;-65
2023/06/25 05:26:22;;;;;;;13.50;8.20;;;25.90;99.90;;;;;;4972384;28;20042;-66
2023/06/25 05:28:47;;;;;;;10.45;7.90;;;26.20;99.90;;;;;;4969046;28;20062;-66
2023/06/25 05:31:13;;;;;;;10.35;7.22;;;26.30;99.90;;;;;;4995215;28;20551;-65
2023/06/25 05:33:39;;;;;;;11.80;7.78;;;26.60;99.90;;;;;;4937134;28;20082;-66
2023/06/25 05:36:04;;;;;;;9.75;7.68;;;26.70;99.60;;;;;;4989679;28;20046;-67
2023/06/25 05:38:30;;;;;;;10.23;7.50;;;27.00;99.60;;;;;;4977964;28;20049;-65
2023/06/25 05:40:56;;;;;;;9.70;6.80;;;27.30;99.20;;;;;;4976846;28;20098;-65
2023/06/25 05:43:22;;;;;;;9.73;6.57;;;27.80;98.90;;;;;;4977336;28;20038;-66
2023/06/25 05:45:47;;;;;;;7.43;6.57;;;28.20;98.30;;;;;;4977346;28;20092;-68
2023/06/25 05:48:13;;;;;;;9.73;6.97;;;28.30;97.40;;;;;;4975301;28;20487;-66
2023/06/25 05:50:39;;;;;;;12.05;7.05;;;28.20;96.80;;;;;;4992751;28;20050;-66
2023/06/25 05:53:05;;;;;;;8.95;6.85;;;28.10;95.20;;;;;;4994496;28;20053;-66
2023/06/25 05:55:30;;;;;;;8.10;6.22;;;27.90;96.20;;;;;;4994340;28;20415;-66
2023/06/25 05:57:56;;;;;;;9.27;6.45;;;28.30;96.20;;;;;;4974177;28;20074;-65
2023/06/25 06:00:23;;;;;;;9.32;6.50;;;28.70;96.10;;;;;;4972123;28;20038;-67
2023/06/25 06:02:49;;;;;;;8.00;6.40;;;29.10;95.80;;;;;;4985489;28;20401;-67
2023/06/25 06:05:14;;;;;;;8.65;6.05;;;29.20;95.20;;;;;;4994807;28;20043;-66
2023/06/25 06:07:40;;;;;;;10.75;6.80;;;29.60;95.20;;;;;;4976537;28;20051;-66
2023/06/25 06:10:06;;;;;;;7.50;6.07;;;29.60;94.20;;;;;;4960724;28;20050;-67
2023/06/25 06:12:32;;;;;;;8.07;6.30;;;29.30;93.90;;;;;;4965421;28;20078;-66
2023/06/25 06:14:58;;;;;;;9.93;6.72;;;29.50;94.20;;;;;;4976716;28;20092;-65
2023/06/25 06:17:24;;;;;;;8.27;6.18;;;29.40;93.50;;;;;;4977226;28;20426;-66
2023/06/25 06:19:49;;;;;;;8.20;6.25;;;29.40;93.80;;;;;;4974382;28;20073;-71
2023/06/25 06:22:16;;;;;;;7.32;5.90;;;29.40;93.60;;;;;;4971353;28;20125;-65
2023/06/25 06:24:42;;;;;;;8.30;6.13;;;29.50;93.00;;;;;;4990603;28;20054;-66
2023/06/25 06:27:08;;;;;;;8.75;6.72;;;29.70;93.50;;;;;;4993900;28;20112;-66
2023/06/25 06:29:34;;;;;;;8.18;5.70;;;29.80;93.20;;;;;;4993156;28;20077;-66
2023/06/25 06:32:00;;;;;;;8.25;6.15;;;29.80;93.40;;;;;;4972228;28;20096;-66
2023/06/25 06:34:25;;;;;;;9.65;6.88;;;30.10;92.80;;;;;;4994398;28;20034;-66
2023/06/25 06:36:51;;;;;;;9.23;6.18;;;30.20;93.00;;;;;;4960959;28;20073;-70
2023/06/25 06:39:17;;;;;;;9.25;5.78;;;30.40;92.90;;;;;;4975204;28;20121;-65
2023/06/25 06:41:43;;;;;;;9.00;6.00;;;30.30;92.30;;;;;;4961151;28;20057;-67
2023/06/25 06:44:16;;;;;;;8.02;5.82;;;30.40;92.40;;;;;;4967313;28;20137;-66
2023/06/25 06:46:43;;;;;;;7.57;5.50;;;30.60;91.80;;;;;;4974246;28;20047;-66
2023/06/25 06:49:09;;;;;;;9.82;6.40;;;30.40;92.30;;;;;;4992765;28;20101;-65
2023/06/25 06:51:36;;;;;;;8.25;6.40;;;30.90;92.40;;;;;;4964645;28;20085;-66
2023/06/25 06:54:03;;;;;;;8.73;6.68;;;31.10;91.90;;;;;;4993433;28;20069;-66
2023/06/25 06:56:29;;;;;;;10.57;6.10;;;31.00;92.20;;;;;;4976688;28;20038;-66
2023/06/25 06:58:54;;;;;;;7.10;5.95;;;31.30;91.50;;;;;;4992689;28;20101;-71
2023/06/25 07:01:20;;;;;;;8.85;6.53;;;31.50;91.90;;;;;;4975589;28;20507;-66
2023/06/25 07:03:46;;;;;;;8.88;6.38;;;31.30;91.50;;;;;;4956816;28;20492;-65
2023/06/25 07:06:11;;;;;;;8.68;6.82;;;31.60;91.80;;;;;;4966423;28;20042;-66
2023/06/25 07:08:37;;;;;;;7.75;6.10;;;31.80;91.50;;;;;;4975812;28;20400;-66
2023/06/25 07:11:03;;;;;;;8.75;6.40;;;31.80;91.60;;;;;;4984918;28;20039;-67
2023/06/25 07:13:29;;;;;;;8.48;6.47;;;32.10;91.50;;;;;;4987777;28;20364;-70
2023/06/25 07:15:55;;;;;;;6.88;6.18;;;32.30;91.30;;;;;;4980301;28;20105;-70
2023/06/25 07:18:21;;;;;;;8.82;6.50;;;32.70;91.00;;;;;;4956470;28;20046;-66
2023/06/25 07:20:47;;;;;;;7.97;7.10;;;32.70;90.90;;;;;;4989348;28;20061;-66
2023/06/25 07:23:12;;;;;;;8.85;7.22;;;32.50;90.90;;;;;;4959448;28;20464;-65
2023/06/25 07:25:38;;;;;;;8.32;7.28;;;32.70;91.00;;;;;;4989542;28;20469;-66
2023/06/25 07:28:04;;;;;;;8.98;6.68;;;32.70;91.00;;;;;;4987690;28;20042;-66
2023/06/25 07:30:30;;;;;;;10.48;7.20;;;33.00;90.70;;;;;;4960350;28;20077;-66
2023/06/25 07:32:57;;;;;;;7.95;6.45;;;33.20;91.00;;;;;;4984278;28;20420;-66
2023/06/25 07:35:23;;;;;;;8.40;7.13;;;33.60;90.40;;;;;;4975092;28;20107;-69
2023/06/25 07:37:49;;;;;;;9.48;6.35;;;34.00;90.30;;;;;;4988390;28;20046;-66
2023/06/25 07:40:15;;;;;;;8.27;6.20;;;33.90;90.50;;;;;;4984937;28;20050;-66
2023/06/25 07:42:40;;;;;;;9.25;7.72;;;34.10;90.40;;;;;;4983297;28;20562;-67
2023/06/25 07:45:07;;;;;;;8.00;6.82;;;34.50;89.20;;;;;;4987816;28;20038;-65
2023/06/25 07:47:32;;;;;;;8.48;7.47;;;34.30;88.70;;;;;;4965291;28;20180;-66
2023/06/25 07:49:58;;;;;;;8.80;6.70;;;34.50;89.40;;;;;;4991659;28;20160;-67
2023/06/25 07:52:24;;;;;;;10.48;6.57;;;34.60;88.90;;;;;;4991909;28;20046;-66
2023/06/25 07:54:50;;;;;;;9.38;7.22;;;34.80;88.70;;;;;;4992123;28;20048;-65
2023/06/25 07:57:15;;;;;;;10.45;7.07;;;34.90;88.30;;;;;;4974812;28;20464;-66
2023/06/25 07:59:42;;;;;;;8.55;7.60;;;35.40;87.70;;;;;;4975156;28;20050;-64
2023/06/25 08:02:07;;;;;;;9.85;7.20;;;35.50;87.10;;;;;;4931637;28;20047;-65
2023/06/25 08:04:33;;;;;;;9.93;7.05;;;35.60;86.60;;;;;;4982451;28;20069;-65
2023/06/25 08:06:59;;;;;;;8.45;7.55;;;35.70;86.60;;;;;;4972813;28;20060;-65
2023/06/25 08:09:25;;;;;;;7.95;6.47;;;35.90;86.50;;;;;;4957972;28;20112;-66
2023/06/25 08:11:51;;;;;;;8.65;7.75;;;36.10;86.20;;;;;;4992470;28;20046;-67
2023/06/25 08:14:17;;;;;;;10.25;7.47;;;36.00;85.80;;;;;;4974802;28;20049;-66
2023/06/25 08:16:43;;;;;;;8.93;7.43;;;36.20;85.70;;;;;;4983142;28;20488;-66
2023/06/25 08:19:08;;;;;;;7.88;6.95;;;36.20;85.70;;;;;;4964819;28;20511;-67
2023/06/25 08:21:35;;;;;;;7.97;7.18;;;36.40;85.50;;;;;;4961891;28;20096;-67
2023/06/25 08:24:01;;;;;;;10.18;7.75;;;36.00;84.90;;;;;;4992098;28;20530;-67
2023/06/25 08:26:27;;;;;;;9.07;6.72;;;36.10;85.10;;;;;;4990342;28;20042;-66
2023/06/25 08:28:52;;;;;;;7.78;7.00;;;36.20;85.00;;;;;;4958379;28;20050;-67
2023/06/25 08:31:18;;;;;;;9.60;8.18;;;36.40;85.40;;;;;;4981433;28;20054;-67
2023/06/25 08:33:45;;;;;;;8.93;8.00;;;36.60;84.80;;;;;;4961551;28;20061;-67
2023/06/25 08:36:10;;;;;;;;;;;36.80;84.40;;;;;;4975009;28;20042;-67
2023/06/25 08:38:37;;;;;;;7.65;6.75;;;36.90;83.40;;;;;;4991924;28;19922;-67
2023/06/25 08:41:03;;;;;;;7.43;6.10;;;36.60;83.50;;;;;;4968396;28;20507;-67
2023/06/25 08:43:29;;;;;;;7.93;6.05;;;36.80;83.30;;;;;;4952708;28;20046;-67
2023/06/25 08:45:55;;;;;;;7.65;6.28;;;37.20;83.20;;;;;;4989932;28;20062;-67
2023/06/25 08:48:25;;;;;;;8.23;6.38;;;37.10;82.60;;;;;;4941015;28;20054;-67
2023/06/25 08:50:56;;;;;;;8.45;6.30;;;37.40;82.70;;;;;;4991729;28;20140;-67
2023/06/25 08:53:27;;;;;;;7.45;5.32;;;37.30;82.10;;;;;;4990396;28;20057;-67
2023/06/25 08:55:56;;;;;;;7.13;5.10;;;37.20;82.10;;;;;;4985987;28;20125;-68
2023/06/25 08:58:22;;;;;;;8.60;5.65;;;37.10;82.60;;;;;;4973055;28;20034;-68
2023/06/25 09:00:48;;;;;;;9.50;5.47;;;37.20;82.30;;;;;;4974850;28;20050;-68
2023/06/25 09:03:14;;;;;;;6.32;5.68;;;37.20;81.00;;;;;;4954283;28;20162;-69
2023/06/25 09:05:50;;;;;;;7.40;6.20;;;37.50;81.30;;;;;;4990957;28;20121;-69
2023/06/25 09:08:16;;;;;;;6.40;5.70;;;37.60;80.80;;;;;;4956346;28;20046;-69
2023/06/25 09:10:41;;;;;;;7.70;5.40;;;37.90;80.30;;;;;;4992013;28;20051;-69
2023/06/25 09:13:07;;;;;;;8.95;5.60;;;37.70;79.70;;;;;;4964784;28;20070;-69
2023/06/25 09:15:33;;;;;;;7.15;5.32;;;37.60;80.10;;;;;;4988123;28;20039;-69
2023/06/25 09:17:58;;;;;;;10.82;5.25;;;37.20;80.40;;;;;;4980991;28;20096;-68
2023/06/25 09:20:24;;;;;;;8.35;4.72;;;37.20;80.30;;;;;;4990265;28;20089;-69
2023/06/25 09:22:56;;;;;;;7.05;5.40;;;37.20;79.70;;;;;;4984876;28;20057;-67
2023/06/25 09:25:28;;;;;;;6.40;5.05;;;37.10;79.40;;;;;;4991574;28;20047;-71
2023/06/25 09:27:55;;;;;;;7.32;4.90;;;36.70;79.20;;;;;;4966907;28;20073;-72
2023/06/25 09:30:24;;;;;;;5.32;4.60;;;36.70;79.30;;;;;;4954456;28;20051;-68
2023/06/25 09:32:53;;;;;;;7.07;4.47;;;36.70;78.20;;;;;;4973116;28;20432;-69
2023/06/25 09:35:20;;;;;;;6.43;4.05;;;36.60;78.90;;;;;;4956427;28;20047;-67
2023/06/25 09:37:45;;;;;;;5.60;4.30;;;36.70;78.50;;;;;;4974157;28;20050;-72
2023/06/25 09:40:11;;;;;;;10.00;4.43;;;36.80;77.20;;;;;;4968462;28;20162;-69
2023/06/25 09:42:39;;;;;;;6.13;4.38;;;36.30;77.60;;;;;;4973812;28;20046;-66
2023/06/25 09:45:08;;;;;;;6.47;4.10;;;36.50;76.90;;;;;;4977990;28;20089;-67
2023/06/25 09:47:35;;;;;;;6.65;4.57;;;36.40;76.80;;;;;;4986409;28;20153;-66
2023/06/25 09:50:03;;;;;;;5.63;4.28;;;36.40;76.90;;;;;;4961616;28;20174;-71
2023/06/25 09:52:29;;;;;;;5.90;4.00;;;36.30;76.70;;;;;;4973001;28;20455;-71
2023/06/25 09:54:55;;;;;;;5.93;4.30;;;36.40;76.10;;;;;;4961900;28;20125;-71
2023/06/25 09:57:24;;;;;;;5.10;4.60;;;36.60;76.40;;;;;;4974243;28;20459;-71
2023/06/25 09:59:49;;;;;;;5.55;4.15;;;36.70;76.90;;;;;;4972767;28;20408;-71
2023/06/25 10:02:16;;;;;;;6.97;4.55;;;36.70;77.10;;;;;;4960196;28;20035;-72
2023/06/25 10:04:43;;;;;;;5.82;4.72;;;36.20;76.50;;;;;;4987628;28;20192;-71
2023/06/25 10:07:09;;;;;;;6.20;5.03;;;36.10;77.40;;;;;;4977522;28;20459;-71
2023/06/25 10:09:35;;;;;;;6.53;4.90;;;35.90;77.50;;;;;;4984284;28;20051;-71
2023/06/25 10:12:03;;;;;;;7.10;4.47;;;35.60;77.80;;;;;;4947903;28;20050;-71
2023/06/25 10:14:40;;;;;;;6.00;4.40;;;35.20;78.20;;;;;;4976993;28;20080;-71
2023/06/25 10:17:06;;;;;;;7.35;4.90;;;35.20;77.20;;;;;;4993244;28;20050;-71
2023/06/25 10:19:32;;;;;;;7.15;5.03;;;35.10;78.20;;;;;;4944530;28;20129;-70
2023/06/25 10:22:10;;;;;;;7.50;4.85;;;35.20;78.80;;;;;;4970580;28;20046;-70
2023/06/25 10:24:48;;;;;;;6.88;5.53;;;34.90;79.70;;;;;;4965006;28;20099;-70
2023/06/25 10:27:20;;;;;;;6.20;5.60;;;34.90;78.80;;;;;;4973794;28;20039;-71
2023/06/25 10:29:47;;;;;;;6.67;5.00;;;34.80;78.60;;;;;;4976183;28;20288;-71
2023/06/25 10:32:12;;;;;;;9.82;5.07;;;34.80;78.60;;;;;;4972718;28;20038;-71
2023/06/25 10:34:39;;;;;;;7.20;4.78;;;34.50;79.30;;;;;;4959837;28;20049;-71
2023/06/25 10:37:06;;;;;;;7.20;5.28;;;34.40;78.30;;;;;;4961063;28;20050;-70
2023/06/25 10:39:41;;;;;;;5.85;5.07;;;34.40;78.50;;;;;;4992605;28;20046;-70
2023/06/25 10:42:08;;;;;;;5.85;4.60;;;34.50;78.20;;;;;;4960320;28;20065;-69
2023/06/25 10:44:34;;;;;;;7.60;5.07;;;34.30;78.80;;;;;;4991408;28;20050;-70
2023/06/25 10:47:08;;;;;;;8.70;5.07;;;34.30;78.70;;;;;;4976611;28;20045;-70
2023/06/25 10:49:34;;;;;;;6.45;4.63;;;34.30;78.90;;;;;;4950624;28;20050;-70
2023/06/25 10:52:05;;;;;;;7.75;4.60;;;34.20;78.40;;;;;;4989986;28;20118;-70
2023/06/25 10:54:32;;;;;;;5.93;4.25;;;34.10;77.80;;;;;;4988131;28;20093;-70
2023/06/25 10:57:12;;;;;;;6.70;4.53;;;33.90;77.70;;;;;;4976659;28;20054;-71
2023/06/25 10:59:39;;;;;;;7.47;4.63;;;33.70;78.50;;;;;;4968383;28;20046;-69
2023/06/25 11:02:14;;;;;;;6.20;4.43;;;33.60;78.60;;;;;;4957177;28;20531;-70
2023/06/25 11:04:53;;;;;;;10.02;5.13;;;33.50;79.10;;;;;;4971055;28;20058;-71
2023/06/25 11:07:20;;;;;;;5.88;4.80;;;33.30;79.60;;;;;;4960227;28;20077;-70
2023/06/25 11:09:56;;;;;;;7.97;4.72;;;33.10;79.60;;;;;;4973850;28;20050;-71
2023/06/25 11:12:22;;;;;;;6.00;4.47;;;33.00;79.30;;;;;;4992796;28;20365;-70
2023/06/25 11:14:48;;;;;;;9.50;4.85;;;33.20;79.90;;;;;;4993427;28;20125;-70
2023/06/25 11:17:14;;;;;;;6.55;4.70;;;33.20;79.50;;;;;;4984428;28;20205;-70
2023/06/25 11:19:40;;;;;;;7.97;4.82;;;33.30;79.60;;;;;;4972100;28;20098;-70
2023/06/25 11:22:07;;;;;;;6.50;4.72;;;33.30;79.10;;;;;;4965778;28;20488;-70
2023/06/25 11:24:37;;;;;;;6.55;5.00;;;33.10;79.50;;;;;;4959971;28;20483;-70
2023/06/25 11:27:04;;;;;;;5.50;4.43;;;33.00;79.70;;;;;;4958994;28;20100;-70
2023/06/25 11:29:40;;;;;;;7.00;5.10;;;32.90;80.20;;;;;;4963739;28;20050;-75
2023/06/25 11:32:11;;;;;;;6.97;4.72;;;32.90;79.30;;;;;;4955811;28;20056;-71
2023/06/25 11:34:43;;;;;;;5.43;4.55;;;32.80;79.20;;;;;;4959408;28;20121;-71
2023/06/25 11:37:11;;;;;;;6.60;4.60;;;32.60;80.60;;;;;;4952615;28;20054;-70
2023/06/25 11:39:51;;;;;;;7.00;4.63;;;32.60;80.20;;;;;;4959379;28;20680;-71
2023/06/25 11:42:19;;;;;;;5.05;4.45;;;32.60;80.50;;;;;;4953044;28;20090;-70
2023/06/25 11:44:56;;;;;;;7.70;5.13;;;32.60;80.10;;;;;;4962903;28;20054;-69
2023/06/25 11:47:22;;;;;;;5.97;4.65;;;32.70;80.00;;;;;;4975035;28;20048;-70
2023/06/25 11:49:55;;;;;;;6.50;4.30;;;32.60;80.10;;;;;;4959329;28;20066;-70
2023/06/25 11:52:21;;;;;;;;;;;32.70;80.60;;;;;;4972540;28;20078;-70
2023/06/25 11:54:47;;;;;;;5.35;4.68;;;32.80;80.10;;;;;;4975285;28;19975;-70
2023/06/25 11:57:13;;;;;;;6.40;4.60;;;32.70;79.80;;;;;;4966266;28;20078;-70
2023/06/25 11:59:38;;;;;;;6.22;4.50;;;32.60;81.00;;;;;;4944992;28;20038;-70
2023/06/25 12:02:05;;;;;;;6.55;4.55;;;32.60;81.10;;;;;;4957170;28;20407;-74
2023/06/25 12:04:30;;;;;;;4.85;3.60;;;32.80;80.20;;;;;;4992933;28;20050;-70
2023/06/25 12:06:56;;;;;;;6.47;4.20;;;32.70;79.90;;;;;;4984888;28;20459;-70
2023/06/25 12:09:22;;;;;;;5.95;3.80;;;32.70;79.40;;;;;;4940127;28;20047;-70
2023/06/25 12:11:48;;;;;;;5.10;3.90;;;32.80;80.00;;;;;;4942129;28;20104;-70
2023/06/25 12:14:14;;;;;;;5.97;3.95;;;32.90;79.60;;;;;;4944313;28;20146;-70
2023/06/25 12:16:40;;;;;;;4.80;4.05;;;32.90;79.90;;;;;;4967154;28;20093;-70
2023/06/25 12:19:05;;;;;;;5.25;3.70;;;33.00;79.60;;;;;;4975139;28;20084;-70
2023/06/25 12:21:31;;;;;;;5.50;3.67;;;33.10;79.60;;;;;;4975139;28;20046;-71
2023/06/25 12:23:57;;;;;;;5.13;3.78;;;33.20;79.00;;;;;;4986061;28;20039;-70
2023/06/25 12:26:23;;;;;;;6.03;4.10;;;33.20;78.90;;;;;;4968179;28;20506;-70
2023/06/25 12:28:49;;;;;;;4.60;3.83;;;33.20;78.90;;;;;;4958416;28;20527;-70
2023/06/25 12:31:15;;;;;;;5.43;3.55;;;33.30;78.80;;;;;;4975409;28;20049;-69
2023/06/25 12:33:41;;;;;;;5.07;3.60;;;33.30;78.20;;;;;;4965165;28;20065;-70
2023/06/25 12:36:07;;;;;;;3.78;2.90;;;33.40;77.70;;;;;;4971860;28;20050;-70
2023/06/25 12:38:33;;;;;;;4.47;3.35;;;33.20;77.80;;;;;;4959114;28;20042;-71